Parowan, Utah
Current Conditions -  °F | °C
As of 12:53 PM on Saturday 25 Oct 2014 (Local Time) from KCDC Reporting Station
Clear Clear  
Wind Chill: 70°   Ceiling: Unl
Heat Index: 70°   Visibility: 10mi
Dew Point: 37°   Wind: 22mph
Humidity: 30%   Direction: 210°SSW
Pressure: 30.17"   Gusts: 36mph
Location:  37.84°N, 112.83°W
Report Text: KCDC 251853Z AUTO 21019G31KT 10SM CLR 21/03 A3017 RMK AO2 PK WND 20033/1826 SLP166 T02110028 TSNO
Loading
Personal Weather Stations






























Interactive Weather Map
Tropical Storm Tracking
New forecast layout! Learn more

10-Day Weather Forecast

Advertisements
Track Severe Weather on mobile